Aviation Digital Data Service (ADDS)

Output produced by METARs form (1012 UTC 07 December 2022)
found at http://www.aviationweather.gov/metar/data/
 
KJAN 070954Z AUTO 20009KT 8SM OVC006 21/19 A3018 RMK AO2 CIG 006V010 SLP216 T02110194
KJAN 070909Z AUTO 20011G17KT 10SM OVC007 21/19 A3018 RMK AO2 T02060194
KJAN 070854Z AUTO 20010KT 10SM OVC008 21/19 A3018 RMK AO2 SLP215 T02110194 53013
KJAN 070816Z AUTO 20009KT 9SM BKN009 21/19 A3017 RMK AO2 T02110194
KJAN 070754Z AUTO 20007KT 10SM SCT010 21/19 A3016 RMK AO2 SLP210 T02110194
KJAN 070654Z AUTO 20007KT 10SM FEW011 21/19 A3015 RMK AO2 SLP205 T02110194
KJAN 070554Z AUTO 19008KT 10SM FEW110 22/19 A3014 RMK AO2 SLP201 T02170189 10222 20206 402720206 51015
KJAN 070454Z 18007KT 10SM SCT120 22/19 A3013 RMK AO2 SLP199 T02170189
KJAN 070354Z 18008KT 10SM FEW040 22/19 A3011 RMK AO2 SLP192 T02170189
KJAN 070254Z 18008KT 10SM FEW037 22/19 A3009 RMK AO2 SLP186 T02220189 53012
KJAN 070154Z 16009KT 10SM SCT060 22/18 A3007 RMK AO2 SLP179 T02220183
KJAN 070054Z 15007KT 10SM FEW042 BKN060 21/18 A3007 RMK AO2 SLP178 T02110178
KJAN 062354Z 17005KT 10SM BKN150 22/17 A3006 RMK AO2 SLP174 T02170172 10272 20217 53009
KJAN 062254Z 17006KT 10SM FEW050 BKN150 24/17 A3004 RMK AO2 SLP168 T02390172
KJAN 062154Z 19007KT 10SM FEW050 26/17 A3003 RMK AO2 SLP166 T02560172
KJAN 062054Z 22010KT 10SM SCT045 BKN055 27/17 A3003 RMK AO2 SLP164 T02670167 55006
KJAN 061954Z 21014KT 10SM FEW037 BKN055 27/16 A3002 RMK AO2 SLP160 T02670161
KJAN 061854Z 22008KT 10SM FEW037 BKN050 25/18 A3003 RMK AO2 SLP165 T02500178
KJAN 061754Z 22013KT 10SM FEW030 BKN050 24/17 A3005 RMK AO2 SLP171 T02440172 10256 20206 58006
KJAN 061654Z 20010KT 10SM SCT027 BKN037 BKN045 24/18 A3006 RMK AO2 SLP177 T02390183
KJAN 061638Z 21011KT 10SM FEW022 SCT029 BKN036 24/18 A3007 RMK AO2 T02440183
KJAN 061554Z 19016G23KT 10SM BKN020 BKN027 OVC042 24/19 A3007 RMK AO2 SLP179 T02390189
KJAN 061454Z 20007KT 10SM BKN015 22/19 A3006 RMK AO2 SLP177 T02170189 53011
KJAN 061434Z 18010KT 10SM SCT019 22/19 A3005 RMK AO2 T02170189
KJAN 061407Z 18010KT 10SM BKN019 21/19 A3005 RMK AO2 T02110194
KJAN 061354Z 18008KT 10SM FEW019 21/19 A3005 RMK AO2 SLP171 T02060189
KJAN 061254Z 17008KT 10SM SCT020 OVC050 21/19 A3003 RMK AO2 SLP167 T02060189
KJAN 061252Z 18008KT 10SM FEW020 OVC050 21/19 A3003 RMK AO2
KJAN 061244Z 17008KT 10SM BKN020 OVC050 21/19 A3003 RMK AO2 T02060189
KJAN 061154Z 17007KT 10SM FEW018 OVC055 21/19 A3002 RMK AO2 SLP161 60000 T02060189 10211 20206 53009
KJAN 061054Z AUTO 17008KT 10SM FEW055 21/19 A3000 RMK AO2 SLP154 T02060189
KJAN 061021Z AUTO 17008KT 10SM FEW011 SCT016 BKN047 21/19 A3000 RMK AO2 T02060189
KJAN 061010Z AUTO 17007KT 10SM FEW011 BKN016 OVC048 21/19 A3000 RMK AO2 T02060189
KJAN 060954Z AUTO 17006KT 10SM FEW018 OVC050 21/19 A2999 RMK AO2 SLP153 T02060189
KJAN 060926Z AUTO 17007KT 10SM FEW016 SCT021 OVC050 21/19 A2999 RMK AO2 T02060189
KJAN 060854Z AUTO 18007KT 10SM SCT021 BKN027 OVC049 21/19 A2999 RMK AO2 SLP151 60000 T02060189 53005
KJAN 060844Z AUTO 17008KT 10SM SCT027 OVC049 21/19 A2998 RMK AO2 T02110189
KJAN 060754Z AUTO 19008KT 10SM OVC019 21/19 A2998 RMK AO2 RAB43E53 SLP149 P0000 T02060189
KJAN 060654Z AUTO 17010KT 10SM BKN022 21/19 A2997 RMK AO2 SLP144 T02060189
KJAN 060603Z AUTO 18011KT 10SM BKN015 21/19 A2997 RMK AO2 T02110189
KJAN 060554Z AUTO 19010KT 10SM BKN014 21/19 A2997 RMK AO2 SLP147 T02060189 10211 20200 402170139 51006
KJAN 060551Z AUTO 18010KT 10SM BKN012 21/19 A2997 RMK AO2
KJAN 060537Z AUTO 18009KT 10SM SCT011 21/19 A2997 RMK AO2 T02060189
KJAN 060513Z AUTO 18007KT 10SM BKN012 21/19 A2997 RMK AO2 T02060189
KJAN 060505Z AUTO 19009KT 10SM SCT012 21/19 A2997 RMK AO2 T02060189
KJAN 060454Z 19010KT 10SM BKN012 21/19 A2996 RMK AO2 SLP143 T02060189
KJAN 060354Z 18009KT 10SM BKN013 21/19 A2996 RMK AO2 SLP141 T02060189
KJAN 060254Z 18010KT 10SM FEW025 21/19 A2995 RMK AO2 SLP140 T02060189 51004
KJAN 060154Z 16009KT 10SM BKN070 21/19 A2995 RMK AO2 SLP139 T02060189
KJAN 060054Z 16008KT 10SM FEW037 OVC060 21/18 A2994 RMK AO2 SLP137 T02060183
KJAN 052354Z 15005KT 10SM OVC060 20/18 A2994 RMK AO2 SLP136 T02000178 10217 20194 51001
KJAN 052254Z 17005KT 10SM OVC070 21/18 A2994 RMK AO2 SLP135 T02110178
KJAN 052154Z 16006KT 10SM OVC070 21/18 A2994 RMK AO2 SLP136 T02110178
KJAN 052054Z 18010KT 10SM OVC070 22/18 A2994 RMK AO2 SLP134 T02170178 56017
KJAN 051954Z 19008KT 10SM FEW018 SCT022 OVC065 21/18 A2994 RMK AO2 SLP137 T02110178
KJAN 051854Z 19008KT 10SM SCT017 BKN049 OVC065 22/18 A2996 RMK AO2 SLP143 T02170178
KJAN 051754Z 19010KT 10SM BKN015 OVC065 21/17 A2999 RMK AO2 SLP151 T02060172 10211 20167 58013
KJAN 051654Z 18009KT 9SM FEW013 OVC065 21/17 A3001 RMK AO2 SLP160 T02060172
KJAN 051613Z 21007KT 8SM BKN012 OVC060 20/17 A3003 RMK AO2 T02000172 $
KJAN 051603Z 20008KT 8SM SCT012 OVC060 20/17 A3003 RMK AO2 T02000172 $
KJAN 051554Z 20007KT 7SM BKN011 OVC060 19/17 A3002 RMK AO2 SLP163 T01940172 $
KJAN 051524Z 19010KT 7SM BKN010 OVC060 19/17 A3003 RMK AO2 T01940172 $
KJAN 051454Z 19010KT 6SM BR OVC009 19/17 A3002 RMK AO2 SLP164 T01890172 50001 $
KJAN 051354Z 20008KT 3SM BR OVC005 18/17 A3003 RMK AO2 CIG 002V007 SLP167 T01780167 $
KJAN 051352Z 19009KT 3SM BR OVC003 18/17 A3003 RMK AO2 CIG 002V007 $
KJAN 051335Z 19009KT 2 1/2SM BR OVC003 17/17 A3003 RMK AO2 T01720167 $
KJAN 051254Z 19007KT 1 1/4SM BR OVC002 17/16 A3002 RMK AO2 SLP164 T01670161 $
KJAN 051154Z 17007KT 1SM R16L/P6000FT BR OVC002 16/15 A3001 RMK AO2 SLP160 60001 70001 T01560150 10156 20139 58010 $
KJAN 051134Z AUTO 16005KT 1 1/4SM R16L/5000V5500FT BR OVC002 16/15 A3002 RMK AO2 T01560150 $
KJAN 051126Z AUTO 16007KT 3/4SM R16L/4500V5000FT BR OVC002 15/15 A3001 RMK AO2 T01500150 $
KJAN 051111Z AUTO 15006KT 1 3/4SM BR OVC002 15/14 A3002 RMK AO2 T01500144 $
KJAN 051054Z AUTO 16005KT 5SM BR OVC004 14/14 A3002 RMK AO2 SLP162 T01440139 $
KJAN 051019Z AUTO 00000KT 3SM BR OVC004 14/14 A3004 RMK AO2 T01440139 $
KJAN 051006Z AUTO 00000KT 2 1/2SM BR OVC005 14/13 A3004 RMK AO2 T01440133 $
KJAN 050954Z AUTO 00000KT 1 3/4SM BR OVC005 14/13 A3004 RMK AO2 RAB20E30 SLP170 P0001 T01390133 $
KJAN 050951Z AUTO 00000KT 1 3/4SM BR OVC005 14/13 A3004 RMK AO2 RAB20E30 P0001 $
KJAN 050939Z AUTO 00000KT 2SM BR OVC005 14/13 A3005 RMK AO2 RAB20E30 P0000 T01440133 $
KJAN 050854Z AUTO 00000KT 10SM OVC006 15/12 A3006 RMK AO2 SLP176 T01500122 56013 $
KJAN 050840Z AUTO 00000KT 10SM OVC007 15/12 A3006 RMK AO2 CIG 006V009 T01500122 $
KJAN 050754Z AUTO 00000KT 10SM OVC009 15/12 A3007 RMK AO2 SLP179 T01500122 $
KJAN 050713Z AUTO 22003KT 10SM BKN008 OVC060 14/12 A3006 RMK AO2 T01390117 $
KJAN 050654Z AUTO 00000KT 10SM BKN010 OVC060 14/12 A3006 RMK AO2 SLP178 T01440117 $
KJAN 050554Z AUTO 00000KT 10SM OVC013 14/11 A3010 RMK AO2 SLP190 T01390111 10167 20128 401830111 56016 $
KJAN 050538Z AUTO 00000KT 10SM BKN014 OVC060 14/11 A3010 RMK AO2 T01390111 $
KJAN 050454Z 00000KT 10SM OVC060 13/11 A3010 RMK AO2 SLP191 T01330106 $
KJAN 050403Z 15003KT 10SM SCT016 BKN075 13/10 A3011 RMK AO2 T01280100 $
KJAN 050354Z 16004KT 10SM BKN016 OVC075 13/11 A3012 RMK AO2 SLP197 T01330106 $
KJAN 050254Z 00000KT 10SM BKN022 OVC031 14/10 A3014 RMK AO2 SLP206 T01390100 58002 $
KJAN 050154Z 36006KT 10SM OVC024 14/10 A3016 RMK AO2 SLP212 T01440100 $
KJAN 050054Z 01009KT 10SM OVC026 16/11 A3015 RMK AO2 SLP209 T01560111 $
KJAN 050005Z 03003KT 10SM OVC029 16/12 A3015 RMK AO2 T01610117 $
KJAN 042354Z 03003KT 10SM OVC030 17/12 A3015 RMK AO2 SLP208 T01670117 10183 20156 55001 $
KJAN 042254Z 32003KT 10SM OVC032 17/12 A3015 RMK AO2 SLP207 T01720117 $
KJAN 042154Z 00000KT 10SM FEW035 BKN150 18/11 A3015 RMK AO2 SLP207 T01780111 $
KJAN 042054Z VRB03KT 10SM SCT025 SCT034 18/11 A3015 RMK AO2 SLP209 T01780106 56034 $
KJAN 042016Z 35004KT 10SM BKN025 BKN060 17/11 A3018 RMK AO2 T01720111 $
KJAN 041954Z 05004KT 10SM FEW025 BKN060 18/11 A3018 RMK AO2 SLP217 T01830106 $
KJAN 041930Z 00000KT 10SM SCT027 BKN035 OVC060 17/11 A3020 RMK AO2 T01720106 $
KJAN 041919Z 30003KT 10SM BKN028 OVC035 17/10 A3021 RMK AO2 T01670100 $
KJAN 041854Z 34003KT 10SM OVC030 17/10 A3022 RMK AO2 SLP232 T01670100 $
KJAN 041834Z 36003KT 10SM BKN028 OVC036 16/09 A3023 RMK AO2 T01610094 $
KJAN 041754Z 36006KT 10SM OVC050 16/09 A3026 RMK AO2 SLP244 T01610094 10161 20111 58019 $
KJAN 041654Z 00000KT 10SM OVC050 14/09 A3029 RMK AO2 SLP254 T01390089
KJAN 041603Z 36004KT 10SM SCT027 OVC035 12/08 A3032 RMK AO2 T01220083
KJAN 041554Z 01006KT 10SM FEW019 BKN027 OVC033 12/08 A3033 RMK AO2 SLP268 T01220083
KJAN 041540Z 36006KT 10SM FEW019 BKN029 OVC043 12/09 A3033 RMK AO2 T01220089
KJAN 041454Z 01005KT 10SM OVC041 12/09 A3031 RMK AO2 SLP262 T01220094 52013
KJAN 041354Z 35006KT 10SM OVC042 12/09 A3030 RMK AO2 SLP258 T01170094
KJAN 041305Z 01005KT 10SM SCT011 OVC042 12/09 A3028 RMK AO2 T01170094
KJAN 041254Z 35004KT 10SM BKN010 OVC043 12/09 A3029 RMK AO2 SLP254 T01170094
KJAN 041247Z 34006KT 10SM OVC010 12/10 A3029 RMK AO2 T01170100
KJAN 041232Z 35005KT 10SM OVC008 12/10 A3028 RMK AO2 CIG 004V011 T01170100
KJAN 041154Z 02006KT 8SM OVC004 11/10 A3027 RMK AO2 SLP250 70003 T01110100 10128 20111 55006
KJAN 041054Z AUTO 35006KT 8SM OVC003 11/10 A3027 RMK AO2 SLP248 T01110100
KJAN 041034Z AUTO 36005KT 8SM OVC004 12/10 A3027 RMK AO2 T01170100
KJAN 070909Z 0709/0806 20009KT P6SM OVC008 
     FM071500 20009KT P6SM OVC015 
     FM071700 20012G18KT P6SM BKN035 
     FM072300 18005KT P6SM BKN250